Aérodrome :
LOGIN :

S'inscrire | Disclaimer

   EN    FR    IT 

 










Légende :    VFR   VFR Marginal   IFR   IFR Intensif   IFR Très Intensif
Visi : 
Plafond : 
>= 8 km
>= 3000ft
5 à 8 km
1000 à 3000 ft
1500m à 5 km
500 à 1000 ft
800 à 1500m
200 à 500 ft
< 800m
< 200 ft
Symboles :   Orages  Brouillard  Fortes neiges  Fortes précipitations  Vent > 20 kt
SIGMETs :   Divers  Orages  Givrage  Turbulence  Onde Orograph.  Cendres Volcan.







- Altitude de l'aérodrome : 82 ft
- Code IATA : ALG


DAAG - Alger Houari Boumedienne

DERNIER METAR :
  • 251100Z 22008KT 170V260 9999 FEW026TCU FEW030CB SCT046 14/07 Q1013

METARs EXPIRÉS :
  • 251030Z 21008KT 170V260 9999 FEW026TCU FEW030CB SCT046 13/07 Q1013
  • 251000Z 22007KT 200V260 9999 FEW026TCU FEW030CB SCT040 13/07 Q1013
  • 250930Z 20007KT 170V230 9999 SCT026TCU FEW030CB SCT040 12/07 Q1013
  • 250900Z 23005KT 180V260 9999 FEW026TCU SCT043 10/06 Q1013
  • 250830Z 22003KT 180V270 9999 FEW020 FEW026TCU SCT046 08/06 Q1013

TAF AMD TAF DAAG
Valide du 25 à 06h jusqu'au 26 à 06h UTC


250714Z 2506/2606 VRB02KT 9999 FEW020
TEMPO 2507/2512 FEW023CB
PROB30
TEMPO 2507/2509 5000 BR
BECMG 2509/2512 28010KT
BECMG 2518/2422 VRB02KT
Pas de NOTAMs connus pour ce terrain.



MET'MAP, la Météo Aéronautique d'un coup d'oeil ! - Copyright ORBIFLY Décembre 2007 - Disclaimer

ORBIFLY MET'MAP TEAM :

Programmation & Développement : Alexandra Zaïnal
Conception & Développement : Baudouin d'Aumeries
Co-Programmation & Développement : Marc-Olivier Méhu
Soutien technique & logistique : Manuel Goepfert

Contact : metmap@orbifly.com




SOURCES & CREDITS :

   NOAA